createdAt,value
2019-02-07T00:00:52.964Z,-3.17
2019-02-07T00:02:01.008Z,-3.02
2019-02-07T00:03:09.071Z,-3.02
2019-02-07T00:04:17.223Z,-3.09
2019-02-07T00:05:25.179Z,-3.14
2019-02-07T00:06:33.225Z,-3.18
2019-02-07T00:07:41.320Z,-3.17
2019-02-07T00:08:49.344Z,-3.17
2019-02-07T00:09:57.400Z,-3.20
2019-02-07T00:11:05.486Z,-3.17
2019-02-07T00:12:13.537Z,-3.24
2019-02-07T00:13:21.582Z,-3.17
2019-02-07T00:14:39.267Z,-3.25
2019-02-07T00:15:37.694Z,-3.17
2019-02-07T00:16:45.722Z,-3.21
2019-02-07T00:17:53.764Z,-3.23
2019-02-07T00:19:01.819Z,-3.25
2019-02-07T00:20:09.872Z,-3.23
2019-02-07T00:21:17.925Z,-3.21
2019-02-07T00:22:25.992Z,-3.20
2019-02-07T00:23:34.041Z,-3.21
2019-02-07T00:24:43.114Z,-3.21
2019-02-07T00:25:50.149Z,-3.24
2019-02-07T00:26:58.193Z,-3.25
2019-02-07T00:28:06.237Z,-3.21
2019-02-07T00:29:14.292Z,-3.18
2019-02-07T00:30:22.326Z,-3.18
2019-02-07T00:31:30.400Z,-3.12
2019-02-07T00:32:38.470Z,-3.03
2019-02-07T00:33:46.542Z,-3.06
2019-02-07T00:34:54.564Z,-2.96
2019-02-07T00:36:02.658Z,-2.94
2019-02-07T00:37:10.690Z,-3.00
2019-02-07T00:38:18.743Z,-2.97
2019-02-07T00:39:26.783Z,-2.97
2019-02-07T00:40:34.842Z,-2.96
2019-02-07T00:41:42.882Z,-3.00
2019-02-07T00:42:50.957Z,-3.05
2019-02-07T00:43:58.992Z,-3.05
2019-02-07T00:45:07.038Z,-2.97
2019-02-07T00:46:15.111Z,-3.05
2019-02-07T00:47:23.149Z,-2.92
2019-02-07T00:48:31.210Z,-3.02
2019-02-07T00:49:39.264Z,-3.02
2019-02-07T00:50:47.315Z,-3.06
2019-02-07T00:51:55.374Z,-3.06
2019-02-07T00:53:03.427Z,-3.14
2019-02-07T00:54:11.460Z,-3.09
2019-02-07T00:55:19.531Z,-3.03
2019-02-07T00:56:27.582Z,-3.17
2019-02-07T00:57:35.684Z,-3.15
2019-02-07T00:58:43.684Z,-3.18
2019-02-07T00:59:51.751Z,-3.20
2019-02-07T01:00:59.784Z,-3.20
2019-02-07T01:02:07.870Z,-3.21
2019-02-07T01:03:15.939Z,-3.18
2019-02-07T01:04:23.955Z,-3.12
2019-02-07T01:05:31.993Z,-3.15
2019-02-07T01:06:40.073Z,-3.20
2019-02-07T01:07:48.107Z,-3.17
2019-02-07T01:08:56.173Z,-3.18
2019-02-07T01:10:04.229Z,-3.10
2019-02-07T01:11:12.279Z,-3.17
2019-02-07T01:12:20.322Z,-3.18
2019-02-07T01:13:28.389Z,-3.17
2019-02-07T01:14:36.435Z,-3.24
2019-02-07T01:15:44.489Z,-3.15
2019-02-07T01:16:52.523Z,-3.20
2019-02-07T01:18:00.592Z,-3.23
2019-02-07T01:19:08.670Z,-3.24
2019-02-07T01:20:16.700Z,-3.20
2019-02-07T01:21:24.756Z,-3.12
2019-02-07T01:22:32.816Z,-3.17
2019-02-07T01:23:40.882Z,-3.15
2019-02-07T01:24:48.926Z,-3.24
2019-02-07T01:25:56.982Z,-3.20
2019-02-07T01:27:05.035Z,-3.14
2019-02-07T01:28:13.125Z,-3.17
2019-02-07T01:29:21.141Z,-3.21
2019-02-07T01:30:29.195Z,-3.24
2019-02-07T01:31:37.252Z,-3.18
2019-02-07T01:32:45.298Z,-3.30
2019-02-07T01:33:53.334Z,-3.28
2019-02-07T01:35:01.373Z,-3.28
2019-02-07T01:36:09.449Z,-3.23
2019-02-07T01:37:17.499Z,-3.38
2019-02-07T01:38:25.569Z,-3.36
2019-02-07T01:39:33.621Z,-3.39
2019-02-07T01:40:41.653Z,-3.39
2019-02-07T01:41:49.719Z,-3.42
2019-02-07T01:42:57.775Z,-3.39
2019-02-07T01:44:05.841Z,-3.42
2019-02-07T01:45:13.883Z,-3.42
2019-02-07T01:46:21.912Z,-3.35
2019-02-07T01:47:29.981Z,-3.35
2019-02-07T01:48:38.061Z,-3.39
2019-02-07T01:49:46.106Z,-3.33
2019-02-07T01:50:54.135Z,-3.28
2019-02-07T01:52:02.196Z,-3.39
2019-02-07T01:53:10.262Z,-3.35
2019-02-07T01:54:18.293Z,-3.45
2019-02-07T01:55:26.350Z,-3.36
2019-02-07T01:56:34.408Z,-3.41
2019-02-07T01:57:42.472Z,-3.39
2019-02-07T01:58:50.526Z,-3.38
2019-02-07T01:59:58.561Z,-3.38
2019-02-07T02:01:06.705Z,-3.46
2019-02-07T02:02:14.686Z,-3.48
2019-02-07T02:03:22.730Z,-3.53
2019-02-07T02:04:30.802Z,-3.49
2019-02-07T02:05:38.861Z,-3.54
2019-02-07T02:06:46.898Z,-3.52
2019-02-07T02:07:54.952Z,-3.52
2019-02-07T02:09:02.989Z,-3.46
2019-02-07T02:10:11.054Z,-3.39
2019-02-07T02:11:19.114Z,-3.52
2019-02-07T02:12:27.242Z,-3.43
2019-02-07T02:13:35.206Z,-3.41
2019-02-07T02:14:43.259Z,-3.45
2019-02-07T02:15:51.324Z,-3.46
2019-02-07T02:16:59.384Z,-3.41
2019-02-07T02:18:07.423Z,-3.39
2019-02-07T02:19:15.476Z,-3.38
2019-02-07T02:20:23.539Z,-3.41
2019-02-07T02:21:31.598Z,-3.42
2019-02-07T02:22:39.635Z,-3.41
2019-02-07T02:23:47.697Z,-3.43
2019-02-07T02:24:55.787Z,-3.45
2019-02-07T02:26:03.794Z,-3.33
2019-02-07T02:27:11.849Z,-3.42
2019-02-07T02:28:19.915Z,-3.38
2019-02-07T02:29:27.960Z,-3.36
2019-02-07T02:30:36.038Z,-3.41
2019-02-07T02:31:44.061Z,-3.36
2019-02-07T02:32:52.097Z,-3.36
2019-02-07T02:34:00.174Z,-3.38
2019-02-07T02:35:08.211Z,-3.36
2019-02-07T02:36:16.293Z,-3.41
2019-02-07T02:37:24.337Z,-3.28
2019-02-07T02:38:32.378Z,-3.25
2019-02-07T02:39:40.455Z,-3.36
2019-02-07T02:40:48.490Z,-3.38
2019-02-07T02:41:56.547Z,-3.25
2019-02-07T02:43:04.596Z,-3.42
2019-02-07T02:44:12.644Z,-3.33
2019-02-07T02:45:20.724Z,-3.39
2019-02-07T02:46:28.771Z,-3.39
2019-02-07T02:47:36.806Z,-3.24
2019-02-07T02:48:44.858Z,-3.30
2019-02-07T02:49:52.905Z,-3.27
2019-02-07T02:51:00.963Z,-3.27
2019-02-07T02:52:09.016Z,-3.28
2019-02-07T02:53:17.190Z,-3.23
2019-02-07T02:54:25.121Z,-3.25
2019-02-07T02:55:33.185Z,-3.25
2019-02-07T02:56:41.247Z,-3.27
2019-02-07T02:57:49.284Z,-3.23
2019-02-07T02:58:57.331Z,-3.21
2019-02-07T03:00:05.402Z,-3.23
2019-02-07T03:01:13.447Z,-3.18
2019-02-07T03:02:21.494Z,-3.23
2019-02-07T03:03:29.546Z,-3.21
2019-02-07T03:04:37.597Z,-3.25
2019-02-07T03:05:45.657Z,-3.25
2019-02-07T03:06:53.688Z,-3.23
2019-02-07T03:08:01.768Z,-3.17
2019-02-07T03:09:09.829Z,-3.18
2019-02-07T03:10:17.876Z,-3.18
2019-02-07T03:11:25.922Z,-3.21
2019-02-07T03:12:33.978Z,-3.21
2019-02-07T03:13:42.041Z,-3.15
2019-02-07T03:14:50.085Z,-3.12
2019-02-07T03:15:58.153Z,-3.18
2019-02-07T03:17:06.202Z,-3.21
2019-02-07T03:18:14.249Z,-3.20
2019-02-07T03:19:22.286Z,-3.15
2019-02-07T03:20:30.348Z,-3.06
2019-02-07T03:21:38.403Z,-3.05
2019-02-07T03:22:46.464Z,-3.12
2019-02-07T03:23:54.513Z,-3.12
2019-02-07T03:25:02.563Z,-3.10
2019-02-07T03:26:10.624Z,-3.12
2019-02-07T03:27:18.681Z,-3.18
2019-02-07T03:28:26.745Z,-3.10
2019-02-07T03:29:34.774Z,-3.18
2019-02-07T03:30:42.828Z,-3.17
2019-02-07T03:31:50.892Z,-3.12
2019-02-07T03:32:58.951Z,-3.09
2019-02-07T03:34:06.983Z,-3.21
2019-02-07T03:35:15.049Z,-3.14
2019-02-07T03:36:23.089Z,-3.15
2019-02-07T03:37:31.151Z,-3.15
2019-02-07T03:38:39.192Z,-3.15
2019-02-07T03:39:47.266Z,-3.09
2019-02-07T03:40:55.317Z,-3.07
2019-02-07T03:42:03.355Z,-3.17
2019-02-07T03:43:11.410Z,-3.15
2019-02-07T03:44:19.458Z,-3.18
2019-02-07T03:45:27.534Z,-3.12
2019-02-07T03:46:35.588Z,-3.09
2019-02-07T03:47:43.672Z,-3.10
2019-02-07T03:48:51.678Z,-3.23
2019-02-07T03:49:59.710Z,-3.17
2019-02-07T03:51:07.803Z,-3.21
2019-02-07T03:52:15.866Z,-3.17
2019-02-07T03:53:23.903Z,-3.24
2019-02-07T03:54:31.941Z,-3.23
2019-02-07T03:55:40.000Z,-3.10
2019-02-07T03:56:48.056Z,-3.21
2019-02-07T03:57:56.095Z,-3.27
2019-02-07T03:59:04.184Z,-3.18
2019-02-07T04:00:12.243Z,-3.18
2019-02-07T04:01:20.262Z,-3.18
2019-02-07T04:02:28.327Z,-3.21
2019-02-07T04:03:36.363Z,-3.21
2019-02-07T04:04:44.421Z,-3.21
2019-02-07T04:05:52.491Z,-3.17
2019-02-07T04:07:00.579Z,-3.12
2019-02-07T04:08:08.567Z,-3.15
2019-02-07T04:09:16.663Z,-3.20
2019-02-07T04:10:24.708Z,-3.18
2019-02-07T04:11:32.770Z,-3.20
2019-02-07T04:12:40.806Z,-3.18
2019-02-07T04:13:48.853Z,-3.21
2019-02-07T04:14:56.922Z,-3.09
2019-02-07T04:16:14.651Z,-3.14
2019-02-07T04:17:13.013Z,-3.18
2019-02-07T04:18:21.059Z,-3.24
2019-02-07T04:19:29.127Z,-3.21
2019-02-07T04:20:37.176Z,-3.21
2019-02-07T04:21:45.255Z,-3.24
2019-02-07T04:22:53.280Z,-3.25
2019-02-07T04:24:01.321Z,-3.21
2019-02-07T04:25:09.375Z,-3.20
2019-02-07T04:26:17.437Z,-3.23
2019-02-07T04:27:25.552Z,-3.14
2019-02-07T04:28:33.553Z,-3.23
2019-02-07T04:29:41.588Z,-3.24
2019-02-07T04:30:49.731Z,-3.24
2019-02-07T04:31:57.717Z,-3.17
2019-02-07T04:33:05.772Z,-3.20
2019-02-07T04:34:13.813Z,-3.27
2019-02-07T04:35:21.867Z,-3.24
2019-02-07T04:36:29.934Z,-3.33
2019-02-07T04:37:37.967Z,-3.33
2019-02-07T04:38:46.014Z,-3.30
2019-02-07T04:39:54.076Z,-3.30
2019-02-07T04:41:02.139Z,-3.24
2019-02-07T04:42:10.189Z,-3.25
2019-02-07T04:43:18.240Z,-3.25
2019-02-07T04:44:26.284Z,-3.27
2019-02-07T04:45:34.340Z,-3.20
2019-02-07T04:46:42.412Z,-3.21
2019-02-07T04:47:50.461Z,-3.18
2019-02-07T04:48:58.566Z,-3.25
2019-02-07T04:50:06.597Z,-3.23
2019-02-07T04:51:14.601Z,-3.14
2019-02-07T04:52:22.662Z,-3.18
2019-02-07T04:53:30.727Z,-3.25
2019-02-07T04:54:38.790Z,-3.15
2019-02-07T04:55:46.812Z,-3.23
2019-02-07T04:56:54.875Z,-3.21
2019-02-07T04:58:02.947Z,-3.17
2019-02-07T04:59:10.990Z,-3.15
2019-02-07T05:00:19.039Z,-3.18
2019-02-07T05:01:27.100Z,-3.17
2019-02-07T05:02:35.140Z,-3.09
2019-02-07T05:03:43.198Z,-3.17
2019-02-07T05:04:51.255Z,-3.09
2019-02-07T05:05:59.304Z,-3.10
2019-02-07T05:07:07.351Z,-3.05
2019-02-07T05:08:15.432Z,-3.18
2019-02-07T05:09:23.462Z,-3.09
2019-02-07T05:10:31.516Z,-3.12
2019-02-07T05:11:39.588Z,-3.15
2019-02-07T05:12:47.662Z,-3.20
2019-02-07T05:13:55.673Z,-3.15
2019-02-07T05:15:03.737Z,-3.15
2019-02-07T05:16:11.786Z,-3.06
2019-02-07T05:17:19.836Z,-3.14
2019-02-07T05:18:27.880Z,-3.18
2019-02-07T05:19:35.937Z,-3.17
2019-02-07T05:20:44.013Z,-3.10
2019-02-07T05:21:52.045Z,-3.10
2019-02-07T05:23:00.104Z,-3.03
2019-02-07T05:24:08.154Z,-3.15
2019-02-07T05:25:16.187Z,-3.17
2019-02-07T05:26:24.267Z,-3.05
2019-02-07T05:27:34.959Z,-3.10
2019-02-07T05:28:40.388Z,-3.02
2019-02-07T05:29:48.418Z,-3.05
2019-02-07T05:30:56.498Z,-3.03
2019-02-07T05:32:04.566Z,-3.03
2019-02-07T05:33:12.570Z,-3.17
2019-02-07T05:34:20.673Z,-3.12
2019-02-07T05:35:28.695Z,-3.07
2019-02-07T05:36:36.753Z,-3.03
2019-02-07T05:37:44.809Z,-3.06
2019-02-07T05:38:52.863Z,-3.07
2019-02-07T05:40:00.914Z,-3.15
2019-02-07T05:41:08.967Z,-3.02
2019-02-07T05:42:17.053Z,-3.14
2019-02-07T05:43:25.076Z,-3.02
2019-02-07T05:44:33.125Z,-3.05
2019-02-07T05:45:41.170Z,-3.00
2019-02-07T05:46:50.845Z,-3.06
2019-02-07T05:47:57.311Z,-3.15
2019-02-07T05:49:05.335Z,-3.12
2019-02-07T05:50:13.395Z,-2.96
2019-02-07T05:51:21.447Z,-2.92
2019-02-07T05:52:29.497Z,-2.92
2019-02-07T05:53:37.553Z,-2.97
2019-02-07T05:54:45.596Z,-2.86
2019-02-07T05:55:53.689Z,-2.99
2019-02-07T05:57:01.683Z,-2.88
2019-02-07T05:58:09.759Z,-2.97
2019-02-07T05:59:17.804Z,-3.02
2019-02-07T06:00:25.882Z,-2.94
2019-02-07T06:01:33.929Z,-3.00
2019-02-07T06:02:41.981Z,-3.10
2019-02-07T06:03:50.017Z,-3.10
2019-02-07T06:04:58.084Z,-3.05
2019-02-07T06:06:06.138Z,-3.09
2019-02-07T06:07:14.181Z,-3.14
2019-02-07T06:08:22.236Z,-3.09
2019-02-07T06:09:30.335Z,-3.12
2019-02-07T06:10:38.348Z,-3.05
2019-02-07T06:11:46.433Z,-3.07
2019-02-07T06:12:54.509Z,-3.14
2019-02-07T06:14:02.569Z,-3.09
2019-02-07T06:15:10.577Z,-3.00
2019-02-07T06:16:18.610Z,-3.02
2019-02-07T06:17:26.696Z,-3.17
2019-02-07T06:18:34.717Z,-3.14
2019-02-07T06:19:42.788Z,-3.06
2019-02-07T06:20:50.844Z,-3.06
2019-02-07T06:21:58.880Z,-3.00
2019-02-07T06:23:06.927Z,-2.99
2019-02-07T06:24:15.061Z,-3.00
2019-02-07T06:25:23.059Z,-3.00
2019-02-07T06:26:31.113Z,-3.00
2019-02-07T06:27:39.149Z,-2.94
2019-02-07T06:28:47.212Z,-2.96
2019-02-07T06:29:55.290Z,-2.92
2019-02-07T06:31:03.318Z,-2.92
2019-02-07T06:32:11.344Z,-2.92
2019-02-07T06:33:19.422Z,-2.88
2019-02-07T06:34:29.264Z,-2.85
2019-02-07T06:35:35.616Z,-2.92
2019-02-07T06:36:43.575Z,-2.96
2019-02-07T06:37:51.603Z,-2.86
2019-02-07T06:38:59.686Z,-2.85
2019-02-07T06:40:07.749Z,-2.84
2019-02-07T06:41:15.805Z,-2.89
2019-02-07T06:42:23.867Z,-2.94
2019-02-07T06:43:31.890Z,-2.89
2019-02-07T06:44:39.957Z,-2.73
2019-02-07T06:45:48.019Z,-2.79
2019-02-07T06:46:56.063Z,-2.79
2019-02-07T06:48:04.128Z,-2.82
2019-02-07T06:49:12.147Z,-2.82
2019-02-07T06:50:20.225Z,-2.81
2019-02-07T06:51:28.316Z,-2.85
2019-02-07T06:52:36.369Z,-2.74
2019-02-07T06:53:44.390Z,-2.79
2019-02-07T06:54:52.444Z,-2.68
2019-02-07T06:56:00.496Z,-2.77
2019-02-07T06:57:08.581Z,-2.79
2019-02-07T06:58:16.607Z,-2.71
2019-02-07T06:59:24.657Z,-2.74
2019-02-07T07:00:32.727Z,-2.68
2019-02-07T07:01:40.778Z,-2.70
2019-02-07T07:02:48.809Z,-2.67
2019-02-07T07:03:57.714Z,-2.68
2019-02-07T07:05:04.915Z,-2.67
2019-02-07T07:06:13.001Z,-2.71
2019-02-07T07:07:21.024Z,-2.64
2019-02-07T07:08:29.089Z,-2.64
2019-02-07T07:09:37.118Z,-2.68
2019-02-07T07:10:45.212Z,-2.60
2019-02-07T07:11:53.226Z,-2.63
2019-02-07T07:13:01.315Z,-2.66
2019-02-07T07:14:09.378Z,-2.56
2019-02-07T07:15:17.409Z,-2.52
2019-02-07T07:16:25.446Z,-2.52
2019-02-07T07:17:33.502Z,-2.50
2019-02-07T07:18:41.561Z,-2.50
2019-02-07T07:19:49.607Z,-2.66
2019-02-07T07:20:59.453Z,-2.52
2019-02-07T07:22:05.720Z,-2.50
2019-02-07T07:23:13.780Z,-2.49
2019-02-07T07:24:21.830Z,-2.43
2019-02-07T07:25:29.882Z,-2.37
2019-02-07T07:26:37.956Z,-2.43
2019-02-07T07:27:46.643Z,-2.48
2019-02-07T07:28:54.072Z,-2.40
2019-02-07T07:30:02.086Z,-2.34
2019-02-07T07:31:10.151Z,-2.27
2019-02-07T07:32:20.051Z,-2.27
2019-02-07T07:33:26.267Z,-2.30
2019-02-07T07:34:34.326Z,-2.29
2019-02-07T07:35:42.353Z,-2.20
2019-02-07T07:36:51.012Z,-2.24
2019-02-07T07:37:58.479Z,-2.26
2019-02-07T07:39:06.532Z,-2.23
2019-02-07T07:40:14.637Z,-2.15
2019-02-07T07:41:23.324Z,-2.15
2019-02-07T07:42:31.240Z,-2.09
2019-02-07T07:43:39.427Z,-2.20
2019-02-07T07:44:47.410Z,-2.13
2019-02-07T07:45:55.298Z,-2.09
2019-02-07T07:47:02.924Z,-2.00
2019-02-07T07:48:10.996Z,-1.92
2019-02-07T07:49:19.016Z,-1.97
2019-02-07T07:50:27.064Z,-1.98
2019-02-07T07:51:35.144Z,-2.00
2019-02-07T07:52:43.306Z,-1.84
2019-02-07T07:53:51.241Z,-1.91
2019-02-07T07:54:59.299Z,-1.79
2019-02-07T07:56:07.375Z,-1.80
2019-02-07T07:57:15.396Z,-1.79
2019-02-07T07:58:23.455Z,-1.77
2019-02-07T07:59:31.519Z,-1.76
2019-02-07T08:00:39.628Z,-1.69
2019-02-07T08:01:47.778Z,-1.62
2019-02-07T08:02:55.718Z,-1.66
2019-02-07T08:04:03.780Z,-1.67
2019-02-07T08:05:11.789Z,-1.56
2019-02-07T08:06:19.844Z,-1.54
2019-02-07T08:07:28.174Z,-1.62
2019-02-07T08:08:36.042Z,-1.58
2019-02-07T08:09:44.178Z,-1.64
2019-02-07T08:10:52.083Z,-1.69
2019-02-07T08:12:00.264Z,-1.58
2019-02-07T08:13:08.233Z,-1.48
2019-02-07T08:14:16.219Z,-1.52
2019-02-07T08:15:24.297Z,-1.51
2019-02-07T08:16:32.453Z,-1.49
2019-02-07T08:17:47.018Z,-1.45
2019-02-07T08:18:48.420Z,-1.38
2019-02-07T08:19:56.493Z,-1.31
2019-02-07T08:21:04.534Z,-1.35
2019-02-07T08:22:12.582Z,-1.33
2019-02-07T08:23:20.650Z,-1.27
2019-02-07T08:24:28.703Z,-1.13
2019-02-07T08:25:36.757Z,-1.15
2019-02-07T08:26:44.812Z,-1.07
2019-02-07T08:27:52.873Z,-1.10
2019-02-07T08:29:00.946Z,-1.01
2019-02-07T08:30:09.080Z,-1.01
2019-02-07T08:31:17.248Z,-1.05
2019-02-07T08:32:25.196Z,-0.99
2019-02-07T08:33:33.148Z,-0.98
2019-02-07T08:34:41.260Z,-0.99
2019-02-07T08:35:49.397Z,-0.98
2019-02-07T08:36:57.880Z,-0.82
2019-02-07T08:38:07.012Z,-0.85
2019-02-07T08:39:13.433Z,-0.76
2019-02-07T08:40:21.487Z,-0.80
2019-02-07T08:41:30.124Z,-0.73
2019-02-07T08:42:37.593Z,-0.65
2019-02-07T08:43:45.641Z,-0.55
2019-02-07T08:44:55.101Z,-0.47
2019-02-07T08:46:01.854Z,-0.57
2019-02-07T08:47:09.801Z,-0.46
2019-02-07T08:48:17.898Z,-0.40
2019-02-07T08:49:25.926Z,-0.33
2019-02-07T08:50:34.010Z,-0.43
2019-02-07T08:51:42.048Z,-0.34
2019-02-07T08:52:50.086Z,-0.43
2019-02-07T08:53:58.144Z,-0.43
2019-02-07T08:55:06.197Z,-0.31
2019-02-07T08:56:14.252Z,-0.29
2019-02-07T08:57:22.300Z,-0.34
2019-02-07T08:58:30.371Z,-0.29
2019-02-07T08:59:38.464Z,-0.26
2019-02-07T09:00:46.496Z,-0.22
2019-02-07T09:01:54.528Z,-0.22
2019-02-07T09:03:02.582Z,-0.10
2019-02-07T09:04:10.638Z,-0.11
2019-02-07T09:05:18.699Z,0.07
2019-02-07T09:06:26.781Z,-0.08
2019-02-07T09:07:34.834Z,-0.07
2019-02-07T09:08:42.911Z,-0.14
2019-02-07T09:09:50.950Z,0.04
2019-02-07T09:11:00.809Z,-0.14
2019-02-07T09:12:07.023Z,-0.10
2019-02-07T09:13:15.087Z,-0.10
2019-02-07T09:14:23.166Z,-0.07
2019-02-07T09:15:31.217Z,0.00
2019-02-07T09:16:39.262Z,0.07
2019-02-07T09:17:47.348Z,0.02
2019-02-07T09:18:55.374Z,0.00
2019-02-07T09:20:03.434Z,0.03
2019-02-07T09:21:11.483Z,0.15
2019-02-07T09:22:19.557Z,0.11
2019-02-07T09:23:27.603Z,0.13
2019-02-07T09:24:35.669Z,0.18
2019-02-07T09:25:43.724Z,0.23
2019-02-07T09:26:52.377Z,0.20
2019-02-07T09:27:59.856Z,0.28
2019-02-07T09:29:07.922Z,0.15
2019-02-07T09:30:15.933Z,0.26
2019-02-07T09:31:24.052Z,0.23
2019-02-07T09:32:32.091Z,0.23
2019-02-07T09:33:40.103Z,0.33
2019-02-07T09:34:48.170Z,0.38
2019-02-07T09:36:04.772Z,0.42
2019-02-07T09:37:04.286Z,0.44
2019-02-07T09:38:12.333Z,0.44
2019-02-07T09:39:20.384Z,0.57
2019-02-07T09:40:28.460Z,0.55
2019-02-07T09:41:36.546Z,0.58
2019-02-07T09:42:44.565Z,0.62
2019-02-07T09:43:52.612Z,0.75
2019-02-07T09:45:00.959Z,0.73
2019-02-07T09:46:08.739Z,0.80
2019-02-07T09:47:16.801Z,0.87
2019-02-07T09:48:24.882Z,0.93
2019-02-07T09:49:33.402Z,0.91
2019-02-07T09:50:40.962Z,0.94
2019-02-07T09:51:49.013Z,0.90
2019-02-07T09:52:57.059Z,0.90
2019-02-07T09:54:05.126Z,0.97
2019-02-07T09:55:13.199Z,1.04
2019-02-07T09:56:21.235Z,0.91
2019-02-07T09:57:29.378Z,1.08
2019-02-07T09:58:37.377Z,1.11
2019-02-07T09:59:45.474Z,1.09
2019-02-07T10:00:53.484Z,1.23
2019-02-07T10:02:01.550Z,1.26
2019-02-07T10:03:09.607Z,1.36
2019-02-07T10:04:17.686Z,1.36
2019-02-07T10:05:25.701Z,1.52
2019-02-07T10:06:34.404Z,1.55
2019-02-07T10:07:41.814Z,1.51
2019-02-07T10:08:49.865Z,1.45
2019-02-07T10:09:57.932Z,1.50
2019-02-07T10:11:06.041Z,1.52
2019-02-07T10:12:14.047Z,1.52
2019-02-07T10:13:22.078Z,1.55
2019-02-07T10:14:30.162Z,1.54
2019-02-07T10:15:38.218Z,1.52
2019-02-07T10:16:46.581Z,1.42
2019-02-07T10:17:54.362Z,1.54
2019-02-07T10:19:02.413Z,1.41
2019-02-07T10:20:10.448Z,1.44
2019-02-07T10:21:18.530Z,1.58
2019-02-07T10:22:26.579Z,1.48
2019-02-07T10:23:34.644Z,1.65
2019-02-07T10:24:42.682Z,1.65
2019-02-07T10:25:51.322Z,1.63
2019-02-07T10:26:58.807Z,1.65
2019-02-07T10:28:06.865Z,1.72
2019-02-07T10:29:14.917Z,1.72
2019-02-07T10:30:22.988Z,1.80
2019-02-07T10:31:31.032Z,1.68
2019-02-07T10:32:39.097Z,1.68
2019-02-07T10:33:47.152Z,1.81
2019-02-07T10:34:55.214Z,1.86
2019-02-07T10:36:03.321Z,1.95
2019-02-07T10:37:11.322Z,1.95
2019-02-07T10:38:19.388Z,1.98
2019-02-07T10:39:27.538Z,2.03
2019-02-07T10:40:35.492Z,1.99
2019-02-07T10:41:43.564Z,2.03
2019-02-07T10:42:51.604Z,1.99
2019-02-07T10:43:59.669Z,2.07
2019-02-07T10:45:07.725Z,2.03
2019-02-07T10:46:15.797Z,2.06
2019-02-07T10:47:23.853Z,2.06
2019-02-07T10:48:31.907Z,2.21
2019-02-07T10:49:39.973Z,2.18
2019-02-07T10:50:48.020Z,2.18
2019-02-07T10:51:56.081Z,2.18
2019-02-07T10:53:04.140Z,2.16
2019-02-07T10:54:12.166Z,2.24
2019-02-07T10:55:20.256Z,2.21
2019-02-07T10:56:28.330Z,2.10
2019-02-07T10:57:36.365Z,2.17
2019-02-07T10:58:44.458Z,2.20
2019-02-07T10:59:52.459Z,2.30
2019-02-07T11:01:00.555Z,2.24
2019-02-07T11:02:08.602Z,2.20
2019-02-07T11:03:16.720Z,2.17
2019-02-07T11:04:24.706Z,2.17
2019-02-07T11:05:32.842Z,2.16
2019-02-07T11:06:40.840Z,2.20
2019-02-07T11:07:48.912Z,2.17
2019-02-07T11:08:56.941Z,2.06
2019-02-07T11:10:05.027Z,2.06
2019-02-07T11:11:13.059Z,2.02
2019-02-07T11:12:21.137Z,2.10
2019-02-07T11:13:29.175Z,2.03
2019-02-07T11:14:37.215Z,2.10
2019-02-07T11:15:45.297Z,2.09
2019-02-07T11:16:53.342Z,2.10
2019-02-07T11:18:01.413Z,2.21
2019-02-07T11:19:20.627Z,2.23
2019-02-07T11:20:17.530Z,2.17
2019-02-07T11:21:25.587Z,2.24
2019-02-07T11:22:33.664Z,2.20
2019-02-07T11:23:42.338Z,2.27
2019-02-07T11:24:49.765Z,2.21
2019-02-07T11:25:57.818Z,2.25
2019-02-07T11:27:05.867Z,1.99
2019-02-07T11:28:13.932Z,2.00
2019-02-07T11:29:22.029Z,1.93
2019-02-07T11:30:30.107Z,2.00
2019-02-07T11:31:38.092Z,1.99
2019-02-07T11:32:46.207Z,2.00
2019-02-07T11:33:54.221Z,1.95
2019-02-07T11:35:02.307Z,1.95
2019-02-07T11:36:10.344Z,1.95
2019-02-07T11:37:18.401Z,2.03
2019-02-07T11:38:26.475Z,2.07
2019-02-07T11:39:34.541Z,2.03
2019-02-07T11:40:42.580Z,2.02
2019-02-07T11:41:50.625Z,2.07
2019-02-07T11:42:58.708Z,2.00
2019-02-07T11:44:06.761Z,2.10
2019-02-07T11:45:14.805Z,2.00
2019-02-07T11:46:22.879Z,2.05
2019-02-07T11:47:30.927Z,2.17
2019-02-07T11:48:38.971Z,2.17
2019-02-07T11:49:47.036Z,2.17
2019-02-07T11:50:55.157Z,2.14
2019-02-07T11:52:03.167Z,2.17
2019-02-07T11:53:11.206Z,2.17
2019-02-07T11:54:19.281Z,2.20
2019-02-07T11:55:27.327Z,2.21
2019-02-07T11:56:35.425Z,2.28
2019-02-07T11:57:43.475Z,2.31
2019-02-07T11:58:51.510Z,2.24
2019-02-07T11:59:59.596Z,2.30
2019-02-07T12:01:07.630Z,2.23
2019-02-07T12:02:15.702Z,2.14
2019-02-07T12:03:23.754Z,2.23
2019-02-07T12:04:31.819Z,2.27
2019-02-07T12:05:39.839Z,2.24
2019-02-07T12:06:47.906Z,2.38
2019-02-07T12:07:55.976Z,2.35
2019-02-07T12:09:04.065Z,2.41
2019-02-07T12:10:12.083Z,2.48
2019-02-07T12:11:20.161Z,2.56
2019-02-07T12:12:28.282Z,2.46
2019-02-07T12:13:36.266Z,2.52
2019-02-07T12:14:44.321Z,2.46
2019-02-07T12:15:53.812Z,2.49
2019-02-07T12:17:00.456Z,2.49
2019-02-07T12:18:08.523Z,2.57
2019-02-07T12:19:18.252Z,2.57
2019-02-07T12:20:24.672Z,2.71
2019-02-07T12:21:32.653Z,2.69
2019-02-07T12:22:40.755Z,2.69
2019-02-07T12:23:48.787Z,2.66
2019-02-07T12:24:56.841Z,2.74
2019-02-07T12:26:04.895Z,2.54
2019-02-07T12:27:12.964Z,2.60
2019-02-07T12:28:21.021Z,2.52
2019-02-07T12:29:29.079Z,2.66
2019-02-07T12:30:37.142Z,2.63
2019-02-07T12:31:45.172Z,2.56
2019-02-07T12:32:53.232Z,2.71
2019-02-07T12:34:01.300Z,2.67
2019-02-07T12:35:09.372Z,2.64
2019-02-07T12:36:17.523Z,2.63
2019-02-07T12:37:25.483Z,2.72
2019-02-07T12:38:33.540Z,2.72
2019-02-07T12:39:41.587Z,2.74
2019-02-07T12:40:49.670Z,2.72
2019-02-07T12:41:57.717Z,2.69
2019-02-07T12:43:05.761Z,2.74
2019-02-07T12:44:13.852Z,2.77
2019-02-07T12:45:21.894Z,2.85
2019-02-07T12:46:30.004Z,2.81
2019-02-07T12:47:38.015Z,2.74
2019-02-07T12:48:46.081Z,2.75
2019-02-07T12:49:54.112Z,2.79
2019-02-07T12:51:02.154Z,2.92
2019-02-07T12:52:10.214Z,2.87
2019-02-07T12:53:18.302Z,2.71
2019-02-07T12:54:26.362Z,2.84
2019-02-07T12:55:34.397Z,2.74
2019-02-07T12:56:42.469Z,2.79
2019-02-07T12:57:50.521Z,2.84
2019-02-07T12:58:58.596Z,2.78
2019-02-07T13:00:06.666Z,2.81
2019-02-07T13:01:14.696Z,2.87
2019-02-07T13:02:22.769Z,2.90
2019-02-07T13:03:30.822Z,2.96
2019-02-07T13:04:38.890Z,3.00
2019-02-07T13:05:46.948Z,2.93
2019-02-07T13:06:54.992Z,2.90
2019-02-07T13:08:03.066Z,2.92
2019-02-07T13:09:11.132Z,3.02
2019-02-07T13:10:19.175Z,2.90
2019-02-07T13:11:27.322Z,2.89
2019-02-07T13:12:35.329Z,2.97
2019-02-07T13:13:43.386Z,2.95
2019-02-07T13:14:51.395Z,2.97
2019-02-07T13:15:59.460Z,2.96
2019-02-07T13:17:07.535Z,2.96
2019-02-07T13:18:15.646Z,2.93
2019-02-07T13:19:23.667Z,2.92
2019-02-07T13:20:31.712Z,2.95
2019-02-07T13:21:39.815Z,2.92
2019-02-07T13:22:47.841Z,2.97
2019-02-07T13:23:55.900Z,2.95
2019-02-07T13:25:03.979Z,3.02
2019-02-07T13:26:12.005Z,3.00
2019-02-07T13:27:20.070Z,3.03
2019-02-07T13:28:28.128Z,3.06
2019-02-07T13:29:36.181Z,2.99
2019-02-07T13:30:44.231Z,3.14
2019-02-07T13:31:52.284Z,3.08
2019-02-07T13:33:00.388Z,3.13
2019-02-07T13:34:08.425Z,3.15
2019-02-07T13:35:16.511Z,3.03
2019-02-07T13:36:24.513Z,3.06
2019-02-07T13:37:34.558Z,3.10
2019-02-07T13:38:40.627Z,3.08
2019-02-07T13:39:48.699Z,3.20
2019-02-07T13:40:56.745Z,3.11
2019-02-07T13:42:04.823Z,3.08
2019-02-07T13:43:12.876Z,3.14
2019-02-07T13:44:20.922Z,3.14
2019-02-07T13:45:28.988Z,3.05
2019-02-07T13:46:37.419Z,2.99
2019-02-07T13:47:45.113Z,3.00
2019-02-07T13:48:53.174Z,2.95
2019-02-07T13:50:01.243Z,3.00
2019-02-07T13:51:09.282Z,2.92
2019-02-07T13:52:17.352Z,2.96
2019-02-07T13:53:25.406Z,2.95
2019-02-07T13:54:33.468Z,2.96
2019-02-07T13:55:41.501Z,2.96
2019-02-07T13:56:49.579Z,2.93
2019-02-07T13:57:57.644Z,3.03
2019-02-07T13:59:05.698Z,2.96
2019-02-07T14:00:13.772Z,2.85
2019-02-07T14:01:21.780Z,2.84
2019-02-07T14:02:29.877Z,2.93
2019-02-07T14:03:37.953Z,2.89
2019-02-07T14:04:46.005Z,2.92
2019-02-07T14:05:54.029Z,2.95
2019-02-07T14:07:02.089Z,2.90
2019-02-07T14:08:10.219Z,3.05
2019-02-07T14:09:18.223Z,2.96
2019-02-07T14:10:26.292Z,3.00
2019-02-07T14:11:34.337Z,3.00
2019-02-07T14:12:42.410Z,2.92
2019-02-07T14:13:50.469Z,2.96
2019-02-07T14:14:58.520Z,3.03
2019-02-07T14:16:06.568Z,3.03
2019-02-07T14:17:14.626Z,3.05
2019-02-07T14:18:22.701Z,3.05
2019-02-07T14:19:30.867Z,3.03
2019-02-07T14:20:38.795Z,2.99
2019-02-07T14:21:46.859Z,2.99
2019-02-07T14:22:54.935Z,3.08
2019-02-07T14:24:03.001Z,3.06
2019-02-07T14:25:11.059Z,2.96
2019-02-07T14:26:19.107Z,3.06
2019-02-07T14:27:27.200Z,3.08
2019-02-07T14:28:35.221Z,3.03
2019-02-07T14:29:43.286Z,2.95
2019-02-07T14:30:51.332Z,2.96
2019-02-07T14:31:59.430Z,2.92
2019-02-07T14:33:07.485Z,2.97
2019-02-07T14:34:15.510Z,2.90
2019-02-07T14:35:23.608Z,2.95
2019-02-07T14:36:31.657Z,2.93
2019-02-07T14:37:39.696Z,2.87
2019-02-07T14:38:47.770Z,2.92
2019-02-07T14:39:55.800Z,3.00
2019-02-07T14:41:03.885Z,2.95
2019-02-07T14:42:11.924Z,2.96
2019-02-07T14:43:19.994Z,2.92
2019-02-07T14:44:28.031Z,2.95
2019-02-07T14:45:36.110Z,2.93
2019-02-07T14:46:44.173Z,2.96
2019-02-07T14:47:52.228Z,2.92